Time;durP1;ratioP1;P1;durP2;ratioP2;P2;SDS_P1;SDS_P2;PMS_P1;PMS_P2;Temp;Humidity;BMP_temperature;BMP_pressure;BME280_temperature;BME280_humidity;BME280_pressure;Samples;Min_cycle;Max_cycle;Signal;HPM_P1;HPM_P2
2022/06/04 00:01:28;;;;;;;14.05;9.00;;;;;;;;;;5124923;27;20062;-72
2022/06/04 00:03:55;;;;;;;13.98;7.88;;;;;;;;;;5121058;27;20046;-72
2022/06/04 00:06:21;;;;;;;15.05;8.10;;;;;;;;;;5117194;27;20031;-72
2022/06/04 00:08:47;;;;;;;10.20;7.32;;;;;;;;;;5127052;27;20502;-72
2022/06/04 00:16:44;;;;;;;14.27;8.68;;;;;;;;;;5114515;27;20604;-72
2022/06/04 00:19:11;;;;;;;12.63;7.53;;;;;;;;;;5124287;27;20048;-72
2022/06/04 00:21:38;;;;;;;12.63;7.78;;;;;;;;;;5121139;27;20043;-72
2022/06/04 00:24:05;;;;;;;12.15;8.38;;;;;;;;;;5098984;28;20383;-72
2022/06/04 00:26:31;;;;;;;14.57;8.25;;;;;;;;;;5112072;27;20659;-72
2022/06/04 00:28:57;;;;;;;13.80;8.57;;;;;;;;;;5125905;27;20047;-72
2022/06/04 00:31:24;;;;;;;12.38;7.90;;;;;;;;;;5120259;27;20043;-73
2022/06/04 00:33:50;;;;;;;14.85;8.52;;;;;;;;;;5116924;27;20527;-72
2022/06/04 00:36:16;;;;;;;14.48;8.48;;;;;;;;;;5126576;27;20039;-72
2022/06/04 00:38:44;;;;;;;15.93;8.57;;;;;;;;;;5115237;27;20477;-72
2022/06/04 00:41:29;;;;;;;16.13;8.00;;;;;;;;;;5104130;28;20477;-72
2022/06/04 00:44:10;;;;;;;13.57;8.10;;;;;;;;;;5109177;27;20050;-72
2022/06/04 00:46:40;;;;;;;13.30;8.60;;;;;;;;;;5100665;27;20035;-72
2022/06/04 00:49:15;;;;;;;14.43;8.60;;;;;;;;;;5120388;27;20039;-72
2022/06/04 00:51:43;;;;;;;12.85;7.70;;;;;;;;;;5124954;27;20042;-72
2022/06/04 00:54:09;;;;;;;14.23;8.35;;;;;;;;;;5113430;27;20089;-73
2022/06/04 00:56:59;;;;;;;14.48;8.27;;;;;;;;;;5130560;27;20068;-72
2022/06/04 00:59:46;;;;;;;15.77;8.43;;;;;;;;;;5103070;27;20043;-72
2022/06/04 01:02:31;;;;;;;12.70;7.97;;;;;;;;;;5081175;27;20039;-72
2022/06/04 01:05:09;;;;;;;17.10;9.68;;;;;;;;;;5118969;27;20039;-73
2022/06/04 01:07:35;;;;;;;15.50;8.88;;;;;;;;;;5125465;27;20447;-73
2022/06/04 01:10:11;;;;;;;15.88;9.63;;;;;;;;;;5126003;27;20047;-72
2022/06/04 01:12:38;;;;;;;14.80;9.32;;;;;;;;;;5118562;27;20043;-72
2022/06/04 01:15:07;;;;;;;17.80;9.63;;;;;;;;;;5116631;27;20126;-72
2022/06/04 01:17:36;;;;;;;20.10;9.73;;;;;;;;;;5127498;27;20131;-72
2022/06/04 01:20:18;;;;;;;15.88;9.43;;;;;;;;;;5123959;27;20046;-73
2022/06/04 01:23:02;;;;;;;16.15;8.75;;;;;;;;;;5121012;27;20467;-72
2022/06/04 01:25:52;;;;;;;16.63;9.88;;;;;;;;;;5113024;27;20122;-72
2022/06/04 01:28:18;;;;;;;15.95;10.00;;;;;;;;;;5120704;27;20035;-72
2022/06/04 01:30:52;;;;;;;14.88;8.65;;;;;;;;;;5113183;27;20035;-72
2022/06/04 01:33:30;;;;;;;18.10;9.93;;;;;;;;;;5126086;27;20066;-72
2022/06/04 01:36:23;;;;;;;15.80;9.80;;;;;;;;;;5116052;27;20302;-72
2022/06/04 01:38:52;;;;;;;15.60;9.07;;;;;;;;;;5110166;27;20110;-72
2022/06/04 01:41:47;;;;;;;15.80;9.52;;;;;;;;;;5125318;27;20046;-72
2022/06/04 01:44:13;;;;;;;16.42;9.90;;;;;;;;;;5098370;27;20101;-72
2022/06/04 01:46:51;;;;;;;17.13;9.77;;;;;;;;;;5114942;27;20525;-72
2022/06/04 01:49:20;;;;;;;13.73;9.00;;;;;;;;;;5125765;27;20051;-72
2022/06/04 01:51:48;;;;;;;18.13;9.30;;;;;;;;;;5099265;27;20036;-72
2022/06/04 01:54:24;;;;;;;17.10;9.82;;;;;;;;;;5117324;27;20395;-72
2022/06/04 01:56:52;;;;;;;16.70;10.95;;;;;;;;;;5125182;27;20038;-72
2022/06/04 01:59:28;;;;;;;17.90;10.50;;;;;;;;;;5113776;27;20043;-72
2022/06/04 02:01:57;;;;;;;13.65;9.82;;;;;;;;;;5118524;27;20243;-72
2022/06/04 02:04:26;;;;;;;20.05;10.82;;;;;;;;;;5123036;27;20112;-72
2022/06/04 02:09:48;;;;;;;18.60;11.07;;;;;;;;;;5118433;27;20082;-72
2022/06/04 02:12:15;;;;;;;15.73;10.00;;;;;;;;;;5122917;27;20039;-72
2022/06/04 02:14:42;;;;;;;15.93;10.13;;;;;;;;;;5111887;27;20035;-72
2022/06/04 02:17:13;;;;;;;17.33;11.23;;;;;;;;;;5122915;27;20552;-72
2022/06/04 02:19:39;;;;;;;19.60;10.65;;;;;;;;;;5119339;27;20042;-72
2022/06/04 02:22:05;;;;;;;17.40;10.57;;;;;;;;;;5113802;27;20119;-72
2022/06/04 02:24:31;;;;;;;18.48;10.55;;;;;;;;;;5124737;27;20039;-72
2022/06/04 02:26:57;;;;;;;17.95;11.13;;;;;;;;;;5096966;27;20087;-72
2022/06/04 02:29:24;;;;;;;18.70;11.52;;;;;;;;;;5118302;27;20051;-72
2022/06/04 02:31:54;;;;;;;18.75;11.38;;;;;;;;;;5122392;27;20490;-71
2022/06/04 02:34:31;;;;;;;19.30;11.70;;;;;;;;;;5111713;27;20087;-72
2022/06/04 02:37:00;;;;;;;21.33;12.50;;;;;;;;;;5121159;27;20042;-72
2022/06/04 02:39:32;;;;;;;18.58;12.85;;;;;;;;;;5102520;27;20118;-72
2022/06/04 02:42:09;;;;;;;19.77;12.38;;;;;;;;;;5111796;27;20035;-72
2022/06/04 02:44:42;;;;;;;20.42;12.88;;;;;;;;;;5098146;27;20051;-72
2022/06/04 02:47:16;;;;;;;24.50;12.85;;;;;;;;;;5107877;27;20257;-72
2022/06/04 02:49:47;;;;;;;21.60;13.07;;;;;;;;;;5113115;27;20044;-72
2022/06/04 02:52:15;;;;;;;18.45;11.27;;;;;;;;;;5124278;27;20088;-72
2022/06/04 02:54:46;;;;;;;19.35;12.73;;;;;;;;;;5115188;28;20069;-72
2022/06/04 02:57:13;;;;;;;21.27;12.90;;;;;;;;;;5115967;28;20039;-72
2022/06/04 02:59:40;;;;;;;20.35;12.25;;;;;;;;;;5124058;28;20426;-72
2022/06/04 03:02:08;;;;;;;21.25;12.25;;;;;;;;;;5094380;28;20053;-72
2022/06/04 03:04:42;;;;;;;18.33;12.18;;;;;;;;;;5106946;28;20043;-72
2022/06/04 03:07:08;;;;;;;19.92;12.02;;;;;;;;;;5124824;27;20061;-72
2022/06/04 03:09:34;;;;;;;18.80;12.35;;;;;;;;;;5115519;27;20396;-72
2022/06/04 03:12:01;;;;;;;18.13;11.88;;;;;;;;;;5110958;28;20079;-72
2022/06/04 03:14:27;;;;;;;20.27;11.35;;;;;;;;;;5103414;27;20401;-72
2022/06/04 03:16:53;;;;;;;18.83;12.13;;;;;;;;;;5132438;27;20126;-72
2022/06/04 03:19:19;;;;;;;21.10;11.18;;;;;;;;;;5115657;27;20110;-72
2022/06/04 03:21:45;;;;;;;20.15;11.82;;;;;;;;;;5128101;27;20272;-72
2022/06/04 03:24:13;;;;;;;17.30;11.52;;;;;;;;;;5119319;27;20084;-72
2022/06/04 03:26:40;;;;;;;19.65;11.02;;;;;;;;;;5120098;27;20059;-72
2022/06/04 03:29:06;;;;;;;21.90;10.75;;;;;;;;;;5127296;27;20055;-72
2022/06/04 03:31:32;;;;;;;21.48;12.20;;;;;;;;;;5115317;27;20035;-72
2022/06/04 03:33:59;;;;;;;19.45;11.15;;;;;;;;;;5124343;27;20050;-72
2022/06/04 03:36:25;;;;;;;19.95;11.60;;;;;;;;;;5106621;27;20047;-73
2022/06/04 03:38:52;;;;;;;15.77;10.20;;;;;;;;;;5116440;27;20036;-72
2022/06/04 03:41:18;;;;;;;19.70;11.60;;;;;;;;;;5130788;27;20038;-72
2022/06/04 03:43:47;;;;;;;17.85;10.32;;;;;;;;;;5125327;27;20550;-72
2022/06/04 03:46:14;;;;;;;17.30;10.93;;;;;;;;;;5121940;27;20039;-72
2022/06/04 03:48:40;;;;;;;16.73;10.65;;;;;;;;;;5116686;27;20380;-72
2022/06/04 03:51:06;;;;;;;15.45;10.70;;;;;;;;;;5127538;27;20028;-72
2022/06/04 03:53:32;;;;;;;18.23;10.43;;;;;;;;;;5117240;27;20035;-72
2022/06/04 03:55:59;;;;;;;17.27;10.45;;;;;;;;;;5120885;27;20046;-72
2022/06/04 03:58:30;;;;;;;15.70;9.98;;;;;;;;;;5108298;27;20118;-72
2022/06/04 04:00:56;;;;;;;16.02;9.48;;;;;;;;;;5102889;27;20040;-72
2022/06/04 04:03:22;;;;;;;17.38;10.07;;;;;;;;;;5117358;27;20066;-72
2022/06/04 04:05:50;;;;;;;19.38;9.82;;;;;;;;;;5120956;27;20404;-72
2022/06/04 04:08:17;;;;;;;16.15;10.48;;;;;;;;;;5125313;27;20104;-72
2022/06/04 04:10:44;;;;;;;17.63;9.57;;;;;;;;;;5114493;27;20314;-72
2022/06/04 04:13:11;;;;;;;17.75;9.85;;;;;;;;;;5124690;27;20100;-72
2022/06/04 04:15:38;;;;;;;15.15;8.95;;;;;;;;;;5120354;27;20392;-72
2022/06/04 04:18:05;;;;;;;15.95;9.27;;;;;;;;;;5116675;27;20141;-72
2022/06/04 04:20:33;;;;;;;15.43;9.38;;;;;;;;;;5127099;27;20066;-72
2022/06/04 04:23:00;;;;;;;13.65;8.77;;;;;;;;;;5116599;27;20152;-72
2022/06/04 04:25:27;;;;;;;16.83;9.38;;;;;;;;;;5103645;28;20098;-72
2022/06/04 04:27:54;;;;;;;14.55;9.35;;;;;;;;;;5124898;27;20096;-72
2022/06/04 04:30:21;;;;;;;14.18;8.35;;;;;;;;;;5112599;27;20527;-72
2022/06/04 04:32:48;;;;;;;15.50;8.27;;;;;;;;;;5100848;28;20079;-72
2022/06/04 04:35:15;;;;;;;14.48;8.98;;;;;;;;;;5110766;27;20118;-72
2022/06/04 04:37:42;;;;;;;15.38;8.73;;;;;;;;;;5116918;27;20043;-72
2022/06/04 04:40:09;;;;;;;16.67;8.65;;;;;;;;;;5075502;28;20046;-72
2022/06/04 04:42:35;;;;;;;13.15;8.70;;;;;;;;;;5108930;28;20185;-72
2022/06/04 04:45:02;;;;;;;17.48;8.05;;;;;;;;;;5127476;27;20375;-73
2022/06/04 04:47:28;;;;;;;13.20;8.40;;;;;;;;;;5118880;27;20039;-72
2022/06/04 04:49:54;;;;;;;15.00;8.07;;;;;;;;;;5128642;27;20070;-72
2022/06/04 04:52:20;;;;;;;12.50;6.97;;;;;;;;;;5116137;27;20047;-72
2022/06/04 04:54:47;;;;;;;13.43;7.88;;;;;;;;;;5132442;27;20038;-72
2022/06/04 04:57:13;;;;;;;12.02;7.47;;;;;;;;;;5119659;27;20040;-72
2022/06/04 04:59:39;;;;;;;17.25;7.57;;;;;;;;;;5128284;27;20047;-72
2022/06/04 05:02:05;;;;;;;11.15;6.88;;;;;;;;;;5098645;27;20039;-72
2022/06/04 05:04:31;;;;;;;11.27;6.53;;;;;;;;;;5107219;28;20561;-72
2022/06/04 05:06:58;;;;;;;15.68;6.63;;;;;;;;;;5123205;27;20042;-72
2022/06/04 05:09:24;;;;;;;12.50;6.47;;;;;;;;;;5115589;27;20059;-72
2022/06/04 05:11:50;;;;;;;12.20;7.00;;;;;;;;;;5094034;28;20047;-72
2022/06/04 05:14:22;;;;;;;12.15;7.15;;;;;;;;;;5118356;27;20118;-72
2022/06/04 05:16:49;;;;;;;14.10;7.50;;;;;;;;;;5095280;28;20035;-72
2022/06/04 05:19:15;;;;;;;11.75;7.05;;;;;;;;;;5126261;27;20044;-71
2022/06/04 05:21:43;;;;;;;15.48;7.30;;;;;;;;;;5107871;27;20035;-71
2022/06/04 05:24:21;;;;;;;11.95;6.97;;;;;;;;;;5088975;27;20546;-72
2022/06/04 05:26:47;;;;;;;10.75;6.50;;;;;;;;;;5078879;28;20558;-72
2022/06/04 05:29:14;;;;;;;11.35;6.22;;;;;;;;;;5122523;27;20046;-72
2022/06/04 05:31:41;;;;;;;10.95;6.30;;;;;;;;;;5113462;27;20039;-72
2022/06/04 05:34:10;;;;;;;10.93;6.38;;;;;;;;;;5115900;27;20093;-72
2022/06/04 05:36:37;;;;;;;12.63;6.28;;;;;;;;;;5114894;27;20102;-72
2022/06/04 05:39:04;;;;;;;11.65;6.43;;;;;;;;;;5112524;27;20517;-72
2022/06/04 05:41:30;;;;;;;11.77;6.53;;;;;;;;;;5125167;27;20455;-72
2022/06/04 05:43:56;;;;;;;11.18;6.32;;;;;;;;;;5117593;27;20061;-72
2022/06/04 05:46:23;;;;;;;11.35;6.28;;;;;;;;;;5103962;27;20051;-72
2022/06/04 05:48:49;;;;;;;11.60;6.55;;;;;;;;;;5121608;27;20107;-72
2022/06/04 05:51:20;;;;;;;9.85;6.30;;;;;;;;;;5075304;28;20047;-72
2022/06/04 05:53:48;;;;;;;13.82;7.13;;;;;;;;;;5100204;27;20035;-71
2022/06/04 05:56:21;;;;;;;10.95;6.30;;;;;;;;;;5116313;27;20130;-72
2022/06/04 05:58:48;;;;;;;10.77;6.78;;;;;;;;;;5125032;27;20032;-72
2022/06/04 06:01:15;;;;;;;10.73;6.28;;;;;;;;;;5114099;27;20067;-72
2022/06/04 06:03:43;;;;;;;11.20;6.47;;;;;;;;;;5119552;27;20039;-72
2022/06/04 06:06:21;;;;;;;10.50;6.60;;;;;;;;;;5121887;27;20039;-72
2022/06/04 06:08:47;;;;;;;11.07;6.35;;;;;;;;;;5112022;27;20074;-72
2022/06/04 06:11:15;;;;;;;10.20;6.53;;;;;;;;;;5105198;28;20380;-73
2022/06/04 06:13:42;;;;;;;10.85;6.57;;;;;;;;;;5118813;27;20039;-72
2022/06/04 06:16:15;;;;;;;12.95;6.90;;;;;;;;;;5113382;27;20044;-72
2022/06/04 06:18:42;;;;;;;9.43;6.07;;;;;;;;;;5124935;27;20035;-72
2022/06/04 06:21:09;;;;;;;12.65;6.38;;;;;;;;;;5115450;27;20096;-72
2022/06/04 06:23:36;;;;;;;10.25;6.68;;;;;;;;;;5117106;27;20039;-73
2022/06/04 06:26:11;;;;;;;10.52;5.95;;;;;;;;;;5123491;27;20039;-73
2022/06/04 06:28:39;;;;;;;11.20;6.70;;;;;;;;;;5095669;27;20061;-73
2022/06/04 06:31:06;;;;;;;10.18;6.50;;;;;;;;;;5123143;27;20122;-73
2022/06/04 06:33:32;;;;;;;10.55;6.07;;;;;;;;;;5098927;28;20096;-72
2022/06/04 06:35:59;;;;;;;9.57;5.80;;;;;;;;;;5123907;27;20043;-72
2022/06/04 06:38:25;;;;;;;12.32;6.70;;;;;;;;;;5106961;28;20078;-72
2022/06/04 06:40:53;;;;;;;10.90;6.28;;;;;;;;;;5109029;28;20110;-72
2022/06/04 06:43:20;;;;;;;9.30;6.00;;;;;;;;;;5109775;27;20043;-72
2022/06/04 06:45:46;;;;;;;9.90;5.85;;;;;;;;;;5109276;28;20039;-73
2022/06/04 06:48:12;;;;;;;11.55;5.38;;;;;;;;;;5111125;27;20091;-72
2022/06/04 06:50:38;;;;;;;12.20;5.38;;;;;;;;;;5121070;27;20070;-72
2022/06/04 06:53:05;;;;;;;10.45;6.00;;;;;;;;;;5119061;27;20050;-73
2022/06/04 06:55:31;;;;;;;10.32;6.15;;;;;;;;;;5113120;27;20513;-73
2022/06/04 06:57:57;;;;;;;11.23;6.35;;;;;;;;;;5124649;27;20203;-78
2022/06/04 07:00:24;;;;;;;10.48;5.80;;;;;;;;;;5104129;28;20551;-78
2022/06/04 07:02:50;;;;;;;10.15;5.75;;;;;;;;;;5106452;28;20040;-73
2022/06/04 07:05:16;;;;;;;9.63;6.03;;;;;;;;;;5107201;28;20067;-72
2022/06/04 07:07:42;;;;;;;9.30;5.93;;;;;;;;;;5093211;28;20059;-72
2022/06/04 07:10:10;;;;;;;9.75;6.40;;;;;;;;;;5122279;28;20134;-73
2022/06/04 07:12:36;;;;;;;9.05;5.97;;;;;;;;;;5100754;28;20073;-71
2022/06/04 07:15:03;;;;;;;9.35;6.38;;;;;;;;;;5113887;28;20067;-71
2022/06/04 07:17:29;;;;;;;11.10;6.32;;;;;;;;;;5081858;28;20044;-72
2022/06/04 07:19:55;;;;;;;10.20;5.45;;;;;;;;;;5112840;28;20185;-72
2022/06/04 07:22:21;;;;;;;9.63;5.72;;;;;;;;;;5101709;28;20043;-73
2022/06/04 07:24:47;;;;;;;10.63;6.45;;;;;;;;;;5120998;28;20040;-72
2022/06/04 07:27:14;;;;;;;10.18;6.05;;;;;;;;;;5110899;28;20050;-72
2022/06/04 07:29:40;;;;;;;11.02;6.63;;;;;;;;;;5123246;28;20040;-72
2022/06/04 07:32:09;;;;;;;9.70;6.38;;;;;;;;;;5116040;28;20096;-73
2022/06/04 07:34:35;;;;;;;10.68;6.22;;;;;;;;;;5114174;28;20103;-73
2022/06/04 07:37:01;;;;;;;11.45;6.15;;;;;;;;;;5106956;28;20031;-72
2022/06/04 07:39:27;;;;;;;11.00;5.88;;;;;;;;;;5107273;28;20034;-72
2022/06/04 07:41:54;;;;;;;10.43;6.57;;;;;;;;;;5115154;28;20091;-72
2022/06/04 07:44:21;;;;;;;9.55;6.20;;;;;;;;;;5115512;28;20047;-73
2022/06/04 07:46:48;;;;;;;11.38;6.47;;;;;;;;;;5112500;28;20124;-73
2022/06/04 07:49:14;;;;;;;10.07;6.30;;;;;;;;;;5125317;27;20040;-73
2022/06/04 07:51:42;;;;;;;12.27;6.47;;;;;;;;;;5101811;27;20077;-73
2022/06/04 07:54:08;;;;;;;13.18;7.75;;;;;;;;;;5119707;27;20035;-73
2022/06/04 07:56:36;;;;;;;10.68;6.13;;;;;;;;;;5126720;27;20139;-73
2022/06/04 07:59:02;;;;;;;10.82;5.88;;;;;;;;;;5114685;27;20074;-73
2022/06/04 08:01:28;;;;;;;9.73;5.55;;;;;;;;;;5123814;27;20035;-73
2022/06/04 08:03:55;;;;;;;10.75;5.97;;;;;;;;;;5122189;27;20437;-72
2022/06/04 08:06:22;;;;;;;9.10;5.72;;;;;;;;;;5115346;27;20039;-72
2022/06/04 08:08:54;;;;;;;9.18;5.70;;;;;;;;;;5127014;27;20098;-73
2022/06/04 08:11:34;;;;;;;9.68;5.57;;;;;;;;;;5118364;27;20051;-73
2022/06/04 08:14:00;;;;;;;12.02;6.38;;;;;;;;;;5100310;28;20039;-73
2022/06/04 08:16:27;;;;;;;8.77;5.95;;;;;;;;;;5127185;27;20031;-73
2022/06/04 08:18:53;;;;;;;11.10;6.32;;;;;;;;;;5115425;27;20027;-73
2022/06/04 08:21:19;;;;;;;10.63;5.80;;;;;;;;;;5105005;28;20044;-73
2022/06/04 08:23:45;;;;;;;10.27;6.40;;;;;;;;;;5123525;27;20035;-73
2022/06/04 08:26:12;;;;;;;10.55;5.68;;;;;;;;;;5113927;27;20119;-73
2022/06/04 08:28:38;;;;;;;11.48;6.80;;;;;;;;;;5126237;27;20047;-74
2022/06/04 08:31:15;;;;;;;11.27;5.47;;;;;;;;;;5118719;27;20517;-74
2022/06/04 08:33:41;;;;;;;10.85;6.22;;;;;;;;;;5116743;27;20450;-73
2022/06/04 08:36:08;;;;;;;9.80;5.50;;;;;;;;;;5111391;27;20079;-74
2022/06/04 08:38:35;;;;;;;9.38;5.63;;;;;;;;;;5125266;27;20036;-73
2022/06/04 08:41:02;;;;;;;9.23;5.78;;;;;;;;;;5103386;27;20036;-73
2022/06/04 08:43:40;;;;;;;10.23;5.55;;;;;;;;;;5103114;27;20398;-73
2022/06/04 08:46:18;;;;;;;10.18;5.50;;;;;;;;;;5091286;27;20039;-73
2022/06/04 08:48:45;;;;;;;9.18;5.53;;;;;;;;;;5101537;27;20039;-72
2022/06/04 08:51:18;;;;;;;10.70;6.05;;;;;;;;;;5108291;27;20088;-73
2022/06/04 08:53:44;;;;;;;13.70;6.43;;;;;;;;;;5126813;27;20038;-73
2022/06/04 08:59:01;;;;;;;9.50;5.28;;;;;;;;;;5115133;27;20047;-73
2022/06/04 09:01:32;;;;;;;8.32;5.43;;;;;;;;;;5106230;28;20067;-73
2022/06/04 09:04:04;;;;;;;8.52;4.78;;;;;;;;;;5115376;27;20086;-73
2022/06/04 09:06:45;;;;;;;9.20;5.28;;;;;;;;;;5107866;27;20047;-72
2022/06/04 09:09:15;;;;;;;10.85;4.78;;;;;;;;;;5122625;27;20047;-74
2022/06/04 09:11:50;;;;;;;8.50;4.90;;;;;;;;;;5109294;27;20051;-74
2022/06/04 09:14:16;;;;;;;8.95;4.70;;;;;;;;;;5115836;27;20039;-73
2022/06/04 09:16:47;;;;;;;9.43;4.55;;;;;;;;;;5086704;28;20051;-74
2022/06/04 09:19:17;;;;;;;9.15;5.20;;;;;;;;;;5092248;28;20042;-74
2022/06/04 09:21:43;;;;;;;9.93;5.30;;;;;;;;;;5093625;28;20039;-74
2022/06/04 09:24:09;;;;;;;10.60;4.60;;;;;;;;;;5107658;28;20047;-73
2022/06/04 09:26:42;;;;;;;7.80;4.10;;;;;;;;;;5123380;27;20547;-73
2022/06/04 09:29:31;;;;;;;9.80;4.65;;;;;;;;;;5114926;27;20043;-74
2022/06/04 09:32:10;;;;;;;9.48;4.88;;;;;;;;;;5117406;27;20040;-74
2022/06/04 09:34:39;;;;;;;10.20;6.00;;;;;;;;;;5099012;28;20032;-73
2022/06/04 09:37:07;;;;;;;8.45;4.63;;;;;;;;;;5105900;27;20046;-74
2022/06/04 09:39:37;;;;;;;7.43;4.15;;;;;;;;;;5094525;27;20110;-74
2022/06/04 09:42:05;;;;;;;9.25;4.90;;;;;;;;;;5112585;27;20088;-74
2022/06/04 09:44:34;;;;;;;7.68;4.85;;;;;;;;;;5117113;27;20131;-74
2022/06/04 09:47:17;;;;;;;8.50;4.53;;;;;;;;;;5112192;27;20050;-74
2022/06/04 09:49:49;;;;;;;7.43;3.80;;;;;;;;;;5130955;27;20050;-73
2022/06/04 09:52:24;;;;;;;8.85;4.47;;;;;;;;;;5110440;27;20054;-73
2022/06/04 09:54:57;;;;;;;7.75;4.30;;;;;;;;;;5128699;27;20035;-74
2022/06/04 09:57:37;;;;;;;8.23;4.53;;;;;;;;;;5124485;27;20031;-74
2022/06/04 10:00:24;;;;;;;7.95;4.22;;;;;;;;;;5110332;28;20050;-74
2022/06/04 10:03:01;;;;;;;6.53;4.07;;;;;;;;;;5112871;27;20377;-75
2022/06/04 10:05:28;;;;;;;9.25;4.25;;;;;;;;;;5105446;27;20031;-74
2022/06/04 10:07:56;;;;;;;7.35;4.00;;;;;;;;;;5116922;27;20047;-73
2022/06/04 10:10:30;;;;;;;8.88;4.45;;;;;;;;;;5112986;27;20394;-74
2022/06/04 10:15:44;;;;;;;7.95;4.05;;;;;;;;;;5101560;27;20966;-76
2022/06/04 10:18:16;;;;;;;8.45;4.43;;;;;;;;;;5104873;28;20479;-76
2022/06/04 10:20:42;;;;;;;10.48;4.22;;;;;;;;;;5107007;27;20497;-76
2022/06/04 10:23:14;;;;;;;7.53;4.45;;;;;;;;;;5113689;27;20194;-75
2022/06/04 10:25:55;;;;;;;7.75;4.55;;;;;;;;;;5111527;27;20164;-77
2022/06/04 10:28:34;;;;;;;7.82;4.82;;;;;;;;;;5100051;27;20132;-77
2022/06/04 10:31:20;;;;;;;9.32;4.65;;;;;;;;;;5093905;28;20035;-75
2022/06/04 10:33:46;;;;;;;7.03;3.75;;;;;;;;;;5084786;28;20043;-76
2022/06/04 10:36:31;;;;;;;7.10;3.83;;;;;;;;;;5103234;27;20045;-76
2022/06/04 10:38:57;;;;;;;;;;;;;;;;;;5088116;28;20526;-76
2022/06/04 10:41:26;;;;;;;11.45;4.50;;;;;;;;;;5104135;28;19965;-76
2022/06/04 10:44:11;;;;;;;7.43;3.75;;;;;;;;;;5103818;28;20120;-75
2022/06/04 10:46:46;;;;;;;7.72;4.03;;;;;;;;;;5108707;28;20680;-75
2022/06/04 10:49:31;;;;;;;5.95;3.88;;;;;;;;;;5104326;28;20126;-74
2022/06/04 10:51:57;;;;;;;;;;;;;;;;;;5103015;28;20044;-76
2022/06/04 10:54:43;;;;;;;7.28;4.05;;;;;;;;;;5096196;28;19965;-76
2022/06/04 10:57:26;;;;;;;7.90;4.13;;;;;;;;;;5103655;28;20157;-76
2022/06/04 10:59:58;;;;;;;7.20;3.95;;;;;;;;;;5102968;28;20043;-75
2022/06/04 11:02:36;;;;;;;7.78;3.97;;;;;;;;;;5104781;28;20035;-75
2022/06/04 11:05:08;;;;;;;9.32;3.72;;;;;;;;;;5106062;28;20043;-74
2022/06/04 11:07:53;;;;;;;7.38;3.72;;;;;;;;;;5103135;28;20039;-75
2022/06/04 11:10:23;;;;;;;8.55;3.50;;;;;;;;;;5108463;28;20529;-75
2022/06/04 11:13:09;;;;;;;7.55;3.85;;;;;;;;;;5090298;28;20039;-77
2022/06/04 11:15:44;;;;;;;7.15;3.83;;;;;;;;;;5101688;28;20490;-77
2022/06/04 11:18:16;;;;;;;8.77;4.00;;;;;;;;;;5099818;28;20563;-77
2022/06/04 11:20:51;;;;;;;6.50;3.50;;;;;;;;;;5083270;28;20131;-77
2022/06/04 11:23:32;;;;;;;7.43;3.45;;;;;;;;;;5112390;27;20047;-76
2022/06/04 11:26:03;;;;;;;6.80;3.97;;;;;;;;;;5118972;27;20045;-77
2022/06/04 11:28:30;;;;;;;7.05;3.70;;;;;;;;;;5117666;27;20050;-76
2022/06/04 11:31:19;;;;;;;5.90;3.45;;;;;;;;;;5111998;27;20036;-76
2022/06/04 11:33:51;;;;;;;6.80;3.58;;;;;;;;;;5113530;28;20039;-75
2022/06/04 11:36:18;;;;;;;6.90;3.55;;;;;;;;;;5097348;28;20053;-76
2022/06/04 11:39:03;;;;;;;8.15;4.22;;;;;;;;;;5082447;28;20444;-77
2022/06/04 11:41:29;;;;;;;7.53;4.18;;;;;;;;;;5090255;28;20040;-77
2022/06/04 11:44:15;;;;;;;8.82;3.50;;;;;;;;;;5100867;28;20047;-76
2022/06/04 11:46:57;;;;;;;6.40;3.80;;;;;;;;;;5114147;27;20040;-78
2022/06/04 11:49:29;;;;;;;8.18;3.97;;;;;;;;;;5116184;27;20614;-76
2022/06/04 11:52:15;;;;;;;10.60;4.80;;;;;;;;;;5123348;27;20035;-77
2022/06/04 11:54:48;;;;;;;8.63;4.43;;;;;;;;;;5095977;28;20511;-77
2022/06/04 11:57:17;;;;;;;7.38;4.22;;;;;;;;;;5112496;28;20043;-77
2022/06/04 11:59:59;;;;;;;8.70;4.15;;;;;;;;;;5095479;28;20027;-77
2022/06/04 12:02:32;;;;;;;9.02;4.85;;;;;;;;;;5108852;28;20507;-78
2022/06/04 12:05:05;;;;;;;9.90;4.93;;;;;;;;;;5092898;28;20044;-77
2022/06/04 12:07:42;;;;;;;5.80;3.40;;;;;;;;;;5092880;28;20047;-77
2022/06/04 12:10:12;;;;;;;7.47;4.82;;;;;;;;;;5075700;28;20048;-77
2022/06/04 12:12:45;;;;;;;7.05;4.30;;;;;;;;;;5114180;27;20067;-77
2022/06/04 12:15:25;;;;;;;7.25;4.63;;;;;;;;;;5085452;27;20038;-78
2022/06/04 12:17:55;;;;;;;8.35;4.85;;;;;;;;;;5071561;28;20062;-77
2022/06/04 12:26:21;;;;;;;7.90;4.90;;;;;;;;;;5090288;28;20529;-78
2022/06/04 12:28:47;;;;;;;7.85;4.57;;;;;;;;;;5073756;28;20040;-79
2022/06/04 12:31:14;;;;;;;7.72;3.97;;;;;;;;;;5081971;27;20390;-79
2022/06/04 12:33:42;;;;;;;7.88;4.38;;;;;;;;;;5087601;28;20482;-78
2022/06/04 12:36:13;;;;;;;7.28;4.53;;;;;;;;;;5086921;28;20024;-79
2022/06/04 12:38:40;;;;;;;10.02;5.03;;;;;;;;;;5069785;27;20048;-79
2022/06/04 12:41:11;;;;;;;9.30;4.25;;;;;;;;;;5075036;27;20114;-77
2022/06/04 12:43:39;;;;;;;9.05;4.88;;;;;;;;;;5087833;27;20035;-78
2022/06/04 12:46:08;;;;;;;9.75;5.10;;;;;;;;;;5085931;27;20122;-78
2022/06/04 12:48:37;;;;;;;9.70;4.70;;;;;;;;;;5083172;28;20031;-80
2022/06/04 12:51:07;;;;;;;11.90;5.15;;;;;;;;;;5096145;28;20093;-79
2022/06/04 12:53:35;;;;;;;10.60;4.55;;;;;;;;;;5092063;28;20044;-78
2022/06/04 12:56:08;;;;;;;7.70;4.47;;;;;;;;;;5077175;28;20032;-78
2022/06/04 12:58:42;;;;;;;8.25;4.57;;;;;;;;;;5073929;27;20119;-77
2022/06/04 13:01:18;;;;;;;10.82;5.35;;;;;;;;;;5073446;28;20498;-79
2022/06/04 13:03:45;;;;;;;9.32;5.30;;;;;;;;;;5069928;28;20050;-78
2022/06/04 13:06:23;;;;;;;10.65;5.30;;;;;;;;;;5078330;27;20073;-77
2022/06/04 13:09:16;;;;;;;11.77;4.68;;;;;;;;;;5088892;27;20051;-78
2022/06/04 13:11:48;;;;;;;7.40;4.72;;;;;;;;;;5101420;27;20051;-77
2022/06/04 13:14:24;;;;;;;8.55;4.75;;;;;;;;;;5110147;27;20039;-78
2022/06/04 13:16:51;;;;;;;9.55;4.75;;;;;;;;;;5121116;27;20067;-77
2022/06/04 13:19:29;;;;;;;8.43;4.78;;;;;;;;;;5113008;27;20039;-77
2022/06/04 13:21:58;;;;;;;11.45;5.25;;;;;;;;;;5112441;27;20039;-77
2022/06/04 13:24:26;;;;;;;7.88;4.85;;;;;;;;;;5104733;27;20036;-77
2022/06/04 13:26:56;;;;;;;11.23;5.20;;;;;;;;;;5090425;27;20058;-77
2022/06/04 13:29:28;;;;;;;9.65;4.97;;;;;;;;;;5120669;27;20045;-77
2022/06/04 13:32:00;;;;;;;9.38;4.95;;;;;;;;;;5106789;27;20062;-76
2022/06/04 13:34:27;;;;;;;9.23;5.45;;;;;;;;;;5113863;27;20035;-76
2022/06/04 13:37:18;;;;;;;8.35;4.82;;;;;;;;;;5100107;27;20122;-77
2022/06/04 13:39:48;;;;;;;8.52;5.35;;;;;;;;;;5091011;27;20066;-77
2022/06/04 13:42:23;;;;;;;8.45;4.95;;;;;;;;;;5121396;27;20042;-76
2022/06/04 13:44:57;;;;;;;15.50;5.35;;;;;;;;;;5107739;27;20462;-76
2022/06/04 13:47:26;;;;;;;7.57;4.63;;;;;;;;;;5099551;27;20038;-77
2022/06/04 13:50:08;;;;;;;11.43;5.18;;;;;;;;;;5114077;27;20075;-77
2022/06/04 13:52:43;;;;;;;8.90;5.03;;;;;;;;;;5114445;27;20047;-76
2022/06/04 13:55:15;;;;;;;8.40;4.82;;;;;;;;;;5094054;28;20078;-78
2022/06/04 13:57:42;;;;;;;7.95;4.53;;;;;;;;;;5106706;27;20063;-77
2022/06/04 14:00:29;;;;;;;10.75;4.32;;;;;;;;;;5097329;27;20043;-78
2022/06/04 14:02:59;;;;;;;11.10;4.45;;;;;;;;;;5093320;28;20079;-78
2022/06/04 14:05:46;;;;;;;6.30;3.80;;;;;;;;;;5098439;27;20039;-78
2022/06/04 14:08:15;;;;;;;19.02;4.97;;;;;;;;;;5088497;28;20063;-76
2022/06/04 14:10:42;;;;;;;7.75;4.15;;;;;;;;;;5086451;28;20052;-75
2022/06/04 14:13:09;;;;;;;7.15;4.18;;;;;;;;;;5116731;27;20444;-76
2022/06/04 14:15:38;;;;;;;9.38;4.40;;;;;;;;;;5099806;28;20122;-76
2022/06/04 14:18:07;;;;;;;7.18;4.40;;;;;;;;;;5106603;27;20035;-76
2022/06/04 14:20:43;;;;;;;7.68;4.22;;;;;;;;;;5112093;27;20037;-76
2022/06/04 14:23:09;;;;;;;8.07;4.43;;;;;;;;;;5119712;27;20079;-76
2022/06/04 14:25:54;;;;;;;9.13;4.65;;;;;;;;;;5120628;27;20051;-76
2022/06/04 14:28:27;;;;;;;9.40;4.38;;;;;;;;;;5111864;27;20394;-75
2022/06/04 14:31:04;;;;;;;7.28;3.92;;;;;;;;;;5121167;27;20047;-76
2022/06/04 14:33:31;;;;;;;7.13;4.25;;;;;;;;;;5121235;27;20490;-76
2022/06/04 14:35:59;;;;;;;7.68;4.70;;;;;;;;;;5111586;27;20036;-75
2022/06/04 14:38:26;;;;;;;9.32;4.63;;;;;;;;;;5106598;28;20414;-76
2022/06/04 14:41:15;;;;;;;9.43;4.63;;;;;;;;;;5116665;27;20070;-76
2022/06/04 14:43:52;;;;;;;7.68;5.00;;;;;;;;;;5081984;28;20047;-76
2022/06/04 14:46:33;;;;;;;10.63;4.45;;;;;;;;;;5063131;27;20287;-76
2022/06/04 14:49:18;;;;;;;8.88;4.55;;;;;;;;;;5116928;27;20064;-76
2022/06/04 14:51:44;;;;;;;;;;;;;;;;;;5107706;27;20047;-74
2022/06/04 14:54:11;;;;;;;9.13;4.65;;;;;;;;;;5095840;27;19973;-75
2022/06/04 14:57:07;;;;;;;7.38;4.07;;;;;;;;;;5119176;27;20043;-76
2022/06/04 14:59:40;;;;;;;8.02;4.47;;;;;;;;;;5019439;27;20646;-77
2022/06/04 15:02:14;;;;;;;8.13;4.25;;;;;;;;;;5079097;28;20142;-75
2022/06/04 15:04:59;;;;;;;10.43;4.47;;;;;;;;;;5100266;28;20031;-75
2022/06/04 15:07:25;;;;;;;11.13;4.80;;;;;;;;;;5125129;27;20283;-74
2022/06/04 15:09:57;;;;;;;8.73;4.50;;;;;;;;;;5115141;27;20083;-75
2022/06/04 15:12:34;;;;;;;6.75;4.18;;;;;;;;;;5121975;28;20487;-76
2022/06/04 15:15:10;;;;;;;7.88;4.15;;;;;;;;;;5119551;28;20035;-74